createdAt,value
2017-04-07T00:00:22.723Z,8.34
2017-04-07T00:01:03.238Z,8.41
2017-04-07T00:01:43.673Z,8.3
2017-04-07T00:02:24.149Z,8.3
2017-04-07T00:03:04.608Z,8.31
2017-04-07T00:03:45.073Z,8.27
2017-04-07T00:04:25.527Z,8.31
2017-04-07T00:05:06.016Z,8.27
2017-04-07T00:05:46.464Z,8.26
2017-04-07T00:06:26.939Z,8.34
2017-04-07T00:07:07.417Z,8.26
2017-04-07T00:07:47.946Z,8.28
2017-04-07T00:08:28.430Z,8.28
2017-04-07T00:09:08.899Z,8.31
2017-04-07T00:09:49.362Z,8.33
2017-04-07T00:10:29.793Z,8.27
2017-04-07T00:11:10.268Z,8.28
2017-04-07T00:11:50.747Z,8.23
2017-04-07T00:12:31.203Z,8.27
2017-04-07T00:13:11.665Z,8.27
2017-04-07T00:13:52.157Z,8.28
2017-04-07T00:14:32.594Z,8.23
2017-04-07T00:15:13.040Z,8.26
2017-04-07T00:15:55.024Z,8.26
2017-04-07T00:16:35.537Z,8.23
2017-04-07T00:17:15.973Z,8.27
2017-04-07T00:17:56.472Z,8.18
2017-04-07T00:18:36.906Z,8.23
2017-04-07T00:19:17.416Z,8.26
2017-04-07T00:19:57.879Z,8.19
2017-04-07T00:20:38.334Z,8.26
2017-04-07T00:21:18.825Z,8.24
2017-04-07T00:21:59.235Z,8.24
2017-04-07T00:22:39.717Z,8.18
2017-04-07T00:23:20.192Z,8.15
2017-04-07T00:24:00.648Z,8.23
2017-04-07T00:24:41.116Z,8.26
2017-04-07T00:25:21.582Z,8.19
2017-04-07T00:26:02.028Z,8.16
2017-04-07T00:26:42.477Z,8.2
2017-04-07T00:27:22.951Z,8.16
2017-04-07T00:28:03.410Z,8.18
2017-04-07T00:28:43.870Z,8.19
2017-04-07T00:29:24.358Z,8.2
2017-04-07T00:30:04.814Z,8.19
2017-04-07T00:30:45.285Z,8.16
2017-04-07T00:31:25.810Z,8.18
2017-04-07T00:32:06.271Z,8.18
2017-04-07T00:32:46.709Z,8.16
2017-04-07T00:33:27.215Z,8.16
2017-04-07T00:34:07.818Z,8.23
2017-04-07T00:34:48.327Z,8.23
2017-04-07T00:35:28.847Z,8.23
2017-04-07T00:36:09.312Z,8.23
2017-04-07T00:36:49.787Z,8.26
2017-04-07T00:37:30.251Z,8.26
2017-04-07T00:38:10.700Z,8.2
2017-04-07T00:38:51.168Z,8.19
2017-04-07T00:39:31.651Z,8.23
2017-04-07T00:40:12.122Z,8.23
2017-04-07T00:40:52.575Z,8.2
2017-04-07T00:41:33.033Z,8.28
2017-04-07T00:42:13.508Z,8.24
2017-04-07T00:42:53.998Z,8.23
2017-04-07T00:43:34.447Z,8.24
2017-04-07T00:44:14.939Z,8.24
2017-04-07T00:44:55.396Z,8.23
2017-04-07T00:45:35.849Z,8.19
2017-04-07T00:46:16.349Z,8.13
2017-04-07T00:46:56.839Z,8.18
2017-04-07T00:47:37.286Z,8.23
2017-04-07T00:48:17.724Z,8.23
2017-04-07T00:48:58.236Z,8.2
2017-04-07T00:49:38.691Z,8.24
2017-04-07T00:50:19.155Z,8.12
2017-04-07T00:50:59.658Z,8.16
2017-04-07T00:51:40.107Z,8.12
2017-04-07T00:52:20.610Z,8.16
2017-04-07T00:53:01.094Z,8.13
2017-04-07T00:53:41.534Z,8.13
2017-04-07T00:54:22.022Z,8.1
2017-04-07T00:55:02.496Z,8.12
2017-04-07T00:55:42.945Z,8.08
2017-04-07T00:56:23.413Z,8.12
2017-04-07T00:57:03.872Z,8.12
2017-04-07T00:57:44.339Z,8.12
2017-04-07T00:58:24.762Z,8.13
2017-04-07T00:59:05.261Z,8.16
2017-04-07T00:59:45.737Z,8.09
2017-04-07T01:00:26.207Z,8.12
2017-04-07T01:01:06.700Z,8.1
2017-04-07T01:01:47.141Z,8.03
2017-04-07T01:02:27.626Z,8.08
2017-04-07T01:03:08.114Z,8.12
2017-04-07T01:03:48.588Z,8.15
2017-04-07T01:04:29.081Z,8.08
2017-04-07T01:05:09.531Z,8.1
2017-04-07T01:05:50.078Z,8.1
2017-04-07T01:06:30.508Z,8.08
2017-04-07T01:07:10.959Z,8.08
2017-04-07T01:07:51.453Z,8.12
2017-04-07T01:08:31.918Z,8.12
2017-04-07T01:09:12.465Z,8.12
2017-04-07T01:09:52.950Z,8.06
2017-04-07T01:10:33.405Z,8.08
2017-04-07T01:11:13.902Z,8.08
2017-04-07T01:11:54.378Z,8.1
2017-04-07T01:12:34.803Z,8.08
2017-04-07T01:13:15.315Z,8.06
2017-04-07T01:13:55.741Z,8.15
2017-04-07T01:14:36.233Z,8.08
2017-04-07T01:15:16.747Z,8.1
2017-04-07T01:15:57.160Z,8.06
2017-04-07T01:16:37.696Z,8.12
2017-04-07T01:17:18.106Z,8.12
2017-04-07T01:17:58.538Z,8.06
2017-04-07T01:18:39.050Z,8.13
2017-04-07T01:19:19.459Z,8.08
2017-04-07T01:19:59.983Z,8.1
2017-04-07T01:20:40.425Z,8.12
2017-04-07T01:21:20.873Z,8.09
2017-04-07T01:22:01.299Z,8.12
2017-04-07T01:22:41.800Z,8.12
2017-04-07T01:23:22.289Z,8.06
2017-04-07T01:24:02.741Z,8.13
2017-04-07T01:24:43.214Z,8.09
2017-04-07T01:25:23.648Z,8.12
2017-04-07T01:26:04.125Z,8.12
2017-04-07T01:26:44.657Z,8.13
2017-04-07T01:27:25.052Z,8.12
2017-04-07T01:28:05.565Z,8.15
2017-04-07T01:28:46.014Z,8.1
2017-04-07T01:29:26.477Z,8.09
2017-04-07T01:30:06.984Z,8.13
2017-04-07T01:30:47.428Z,8.13
2017-04-07T01:31:27.983Z,8.13
2017-04-07T01:32:08.429Z,8.1
2017-04-07T01:32:48.880Z,8.13
2017-04-07T01:33:29.377Z,8.09
2017-04-07T01:34:09.828Z,8.12
2017-04-07T01:34:50.352Z,8.13
2017-04-07T01:35:30.811Z,8.12
2017-04-07T01:36:11.283Z,8.16
2017-04-07T01:36:51.708Z,8.1
2017-04-07T01:37:32.200Z,8.15
2017-04-07T01:38:12.667Z,8.1
2017-04-07T01:38:53.094Z,8.13
2017-04-07T01:39:33.589Z,8.13
2017-04-07T01:40:14.053Z,8.13
2017-04-07T01:40:54.497Z,8.12
2017-04-07T01:41:34.994Z,8.18
2017-04-07T01:42:15.454Z,8.19
2017-04-07T01:42:55.903Z,8.18
2017-04-07T01:43:36.378Z,8.23
2017-04-07T01:44:16.843Z,8.23
2017-04-07T01:44:57.322Z,8.18
2017-04-07T01:45:37.818Z,8.15
2017-04-07T01:46:18.308Z,8.2
2017-04-07T01:46:58.737Z,8.12
2017-04-07T01:47:39.220Z,8.15
2017-04-07T01:48:19.647Z,8.16
2017-04-07T01:49:00.142Z,8.18
2017-04-07T01:49:40.583Z,8.23
2017-04-07T01:50:21.063Z,8.13
2017-04-07T01:51:01.538Z,8.2
2017-04-07T01:51:41.978Z,8.15
2017-04-07T01:52:22.485Z,8.19
2017-04-07T01:53:02.931Z,8.19
2017-04-07T01:53:43.410Z,8.2
2017-04-07T01:54:23.888Z,8.26
2017-04-07T01:55:04.359Z,8.23
2017-04-07T01:55:44.825Z,8.19
2017-04-07T01:56:25.298Z,8.24
2017-04-07T01:57:05.721Z,8.23
2017-04-07T01:57:46.183Z,8.23
2017-04-07T01:58:26.632Z,8.3
2017-04-07T01:59:07.109Z,8.31
2017-04-07T01:59:47.575Z,8.27
2017-04-07T02:00:28.029Z,8.27
2017-04-07T02:01:08.502Z,8.26
2017-04-07T02:01:48.995Z,8.27
2017-04-07T02:02:29.476Z,8.33
2017-04-07T02:03:09.944Z,8.31
2017-04-07T02:03:50.401Z,8.33
2017-04-07T02:04:30.861Z,8.28
2017-04-07T02:05:11.307Z,8.31
2017-04-07T02:05:51.821Z,8.31
2017-04-07T02:06:32.221Z,8.36
2017-04-07T02:07:12.720Z,8.3
2017-04-07T02:07:53.187Z,8.34
2017-04-07T02:08:33.692Z,8.31
2017-04-07T02:09:14.117Z,8.44
2017-04-07T02:09:54.575Z,8.41
2017-04-07T02:10:35.036Z,8.38
2017-04-07T02:11:15.492Z,8.41
2017-04-07T02:11:55.988Z,8.34
2017-04-07T02:12:36.428Z,8.42
2017-04-07T02:13:16.906Z,8.44
2017-04-07T02:13:57.416Z,8.38
2017-04-07T02:14:37.980Z,8.45
2017-04-07T02:15:18.508Z,8.42
2017-04-07T02:15:58.963Z,8.44
2017-04-07T02:16:39.439Z,8.44
2017-04-07T02:17:19.924Z,8.37
2017-04-07T02:18:00.376Z,8.49
2017-04-07T02:18:40.829Z,8.45
2017-04-07T02:19:21.305Z,8.44
2017-04-07T02:20:01.868Z,8.37
2017-04-07T02:20:42.344Z,8.51
2017-04-07T02:21:22.811Z,8.48
2017-04-07T02:22:03.313Z,8.51
2017-04-07T02:22:43.767Z,8.36
2017-04-07T02:23:24.208Z,8.49
2017-04-07T02:24:04.686Z,8.53
2017-04-07T02:24:45.168Z,8.48
2017-04-07T02:25:25.672Z,8.45
2017-04-07T02:26:06.117Z,8.53
2017-04-07T02:26:46.634Z,8.49
2017-04-07T02:27:27.108Z,8.48
2017-04-07T02:28:07.605Z,8.46
2017-04-07T02:28:48.088Z,8.52
2017-04-07T02:29:28.547Z,8.45
2017-04-07T02:30:09.008Z,8.45
2017-04-07T02:30:49.477Z,8.52
2017-04-07T02:31:30.012Z,8.38
2017-04-07T02:32:10.472Z,8.44
2017-04-07T02:32:50.961Z,8.41
2017-04-07T02:33:31.392Z,8.45
2017-04-07T02:34:11.842Z,8.45
2017-04-07T02:34:52.309Z,8.45
2017-04-07T02:35:32.792Z,8.49
2017-04-07T02:36:13.247Z,8.48
2017-04-07T02:36:53.709Z,8.45
2017-04-07T02:37:34.221Z,8.53
2017-04-07T02:38:14.653Z,8.53
2017-04-07T02:38:55.119Z,8.34
2017-04-07T02:39:35.581Z,8.37
2017-04-07T02:40:16.076Z,8.51
2017-04-07T02:40:56.549Z,8.53
2017-04-07T02:41:36.983Z,8.53
2017-04-07T02:42:17.459Z,8.51
2017-04-07T02:42:57.923Z,8.36
2017-04-07T02:43:38.386Z,8.51
2017-04-07T02:44:18.864Z,8.46
2017-04-07T02:44:59.329Z,8.42
2017-04-07T02:45:39.796Z,8.46
2017-04-07T02:46:20.222Z,8.46
2017-04-07T02:47:00.684Z,8.44
2017-04-07T02:47:41.170Z,8.48
2017-04-07T02:48:21.630Z,8.53
2017-04-07T02:49:02.085Z,8.56
2017-04-07T02:49:42.570Z,8.51
2017-04-07T02:50:23.060Z,8.42
2017-04-07T02:51:03.481Z,8.55
2017-04-07T02:51:43.941Z,8.45
2017-04-07T02:52:24.459Z,8.48
2017-04-07T02:53:04.937Z,8.41
2017-04-07T02:53:45.386Z,8.48
2017-04-07T02:54:25.865Z,8.48
2017-04-07T02:55:06.313Z,8.46
2017-04-07T02:55:46.784Z,8.53
2017-04-07T02:56:27.251Z,8.52
2017-04-07T02:57:07.711Z,8.53
2017-04-07T02:57:48.203Z,8.49
2017-04-07T02:58:28.695Z,8.53
2017-04-07T02:59:09.114Z,8.53
2017-04-07T02:59:49.607Z,8.49
2017-04-07T03:00:30.105Z,8.51
2017-04-07T03:02:18.821Z,8.51
2017-04-07T03:03:03.640Z,8.51
2017-04-07T03:03:47.673Z,8.52
2017-04-07T03:04:29.701Z,8.48
2017-04-07T03:05:10.116Z,8.51
2017-04-07T03:05:50.615Z,8.49
2017-04-07T03:06:31.059Z,8.49
2017-04-07T03:07:11.548Z,8.51
2017-04-07T03:07:52.016Z,8.49
2017-04-07T03:08:32.498Z,8.48
2017-04-07T03:09:12.957Z,8.42
2017-04-07T03:09:53.406Z,8.41
2017-04-07T03:10:33.859Z,8.52
2017-04-07T03:11:14.349Z,8.46
2017-04-07T03:11:54.808Z,8.52
2017-04-07T03:12:35.258Z,8.49
2017-04-07T03:13:15.741Z,8.49
2017-04-07T03:13:56.177Z,8.42
2017-04-07T03:14:36.682Z,8.37
2017-04-07T03:15:17.165Z,8.49
2017-04-07T03:15:57.673Z,8.45
2017-04-07T03:16:38.155Z,8.41
2017-04-07T03:17:18.646Z,8.44
2017-04-07T03:17:59.103Z,8.51
2017-04-07T03:18:39.543Z,8.55
2017-04-07T03:19:20.030Z,8.53
2017-04-07T03:20:00.478Z,8.38
2017-04-07T03:20:40.978Z,8.46
2017-04-07T03:21:21.410Z,8.51
2017-04-07T03:22:01.896Z,8.46
2017-04-07T03:22:42.400Z,8.44
2017-04-07T03:23:22.882Z,8.51
2017-04-07T03:24:03.333Z,8.41
2017-04-07T03:24:43.805Z,8.46
2017-04-07T03:25:24.273Z,8.51
2017-04-07T03:26:04.740Z,8.53
2017-04-07T03:26:45.229Z,8.44
2017-04-07T03:27:25.692Z,8.46
2017-04-07T03:28:06.170Z,8.51
2017-04-07T03:28:46.639Z,8.51
2017-04-07T03:29:27.103Z,8.46
2017-04-07T03:30:07.580Z,8.48
2017-04-07T03:30:48.027Z,8.52
2017-04-07T03:31:28.500Z,8.55
2017-04-07T03:32:08.972Z,8.42
2017-04-07T03:32:49.462Z,8.37
2017-04-07T03:33:29.900Z,8.44
2017-04-07T03:34:10.402Z,8.51
2017-04-07T03:34:50.856Z,8.53
2017-04-07T03:35:31.364Z,8.52
2017-04-07T03:36:11.800Z,8.41
2017-04-07T03:36:52.297Z,8.51
2017-04-07T03:37:32.755Z,8.45
2017-04-07T03:38:13.219Z,8.51
2017-04-07T03:38:53.695Z,8.37
2017-04-07T03:39:34.159Z,8.42
2017-04-07T03:40:14.621Z,8.49
2017-04-07T03:40:55.096Z,8.53
2017-04-07T03:41:35.571Z,8.46
2017-04-07T03:42:16.074Z,8.48
2017-04-07T03:42:56.603Z,8.48
2017-04-07T03:43:37.048Z,8.49
2017-04-07T03:44:17.547Z,8.45
2017-04-07T03:44:58.078Z,8.48
2017-04-07T03:45:38.554Z,8.42
2017-04-07T03:46:18.990Z,8.36
2017-04-07T03:46:59.501Z,8.45
2017-04-07T03:47:39.920Z,8.49
2017-04-07T03:48:20.420Z,8.49
2017-04-07T03:49:00.879Z,8.52
2017-04-07T03:49:41.320Z,8.44
2017-04-07T03:50:21.830Z,8.44
2017-04-07T03:51:02.285Z,8.51
2017-04-07T03:51:42.735Z,8.48
2017-04-07T03:52:23.213Z,8.53
2017-04-07T03:53:03.628Z,8.45
2017-04-07T03:53:44.099Z,8.42
2017-04-07T03:54:24.560Z,8.3
2017-04-07T03:55:05.173Z,8.42
2017-04-07T03:55:45.592Z,8.37
2017-04-07T03:56:26.065Z,8.46
2017-04-07T03:57:06.543Z,8.45
2017-04-07T03:57:47.000Z,8.37
2017-04-07T03:58:27.466Z,8.38
2017-04-07T03:59:07.984Z,8.45
2017-04-07T03:59:48.428Z,8.46
2017-04-07T04:00:28.997Z,8.38
2017-04-07T04:01:09.473Z,8.51
2017-04-07T04:01:49.958Z,8.48
2017-04-07T04:02:30.405Z,8.38
2017-04-07T04:03:10.860Z,8.37
2017-04-07T04:03:51.337Z,8.48
2017-04-07T04:04:31.762Z,8.41
2017-04-07T04:05:12.242Z,8.45
2017-04-07T04:05:52.694Z,8.46
2017-04-07T04:06:33.333Z,8.41
2017-04-07T04:07:13.842Z,8.42
2017-04-07T04:07:54.291Z,8.34
2017-04-07T04:08:34.780Z,8.44
2017-04-07T04:09:15.243Z,8.41
2017-04-07T04:09:55.712Z,8.45
2017-04-07T04:10:36.203Z,8.33
2017-04-07T04:11:16.648Z,8.41
2017-04-07T04:11:57.083Z,8.48
2017-04-07T04:12:37.567Z,8.42
2017-04-07T04:13:18.045Z,8.45
2017-04-07T04:13:58.513Z,8.52
2017-04-07T04:14:38.957Z,8.56
2017-04-07T04:15:19.468Z,8.45
2017-04-07T04:15:59.916Z,8.37
2017-04-07T04:16:40.365Z,8.51
2017-04-07T04:17:20.836Z,8.45
2017-04-07T04:18:01.345Z,8.52
2017-04-07T04:18:41.791Z,8.53
2017-04-07T04:19:22.266Z,8.51
2017-04-07T04:20:02.731Z,8.52
2017-04-07T04:20:43.187Z,8.45
2017-04-07T04:21:23.656Z,8.42
2017-04-07T04:22:04.133Z,8.45
2017-04-07T04:22:44.591Z,8.53
2017-04-07T04:23:25.040Z,8.38
2017-04-07T04:24:05.578Z,8.49
2017-04-07T04:24:46.012Z,8.49
2017-04-07T04:25:26.511Z,8.48
2017-04-07T04:26:07.017Z,8.46
2017-04-07T04:26:47.496Z,8.48
2017-04-07T04:27:27.959Z,8.46
2017-04-07T04:28:08.425Z,8.44
2017-04-07T04:28:48.916Z,8.55
2017-04-07T04:29:29.327Z,8.48
2017-04-07T04:30:09.853Z,8.36
2017-04-07T04:30:50.295Z,8.45
2017-04-07T04:31:30.772Z,8.51
2017-04-07T04:32:11.277Z,8.56
2017-04-07T04:32:51.722Z,8.45
2017-04-07T04:33:32.193Z,8.41
2017-04-07T04:34:12.649Z,8.38
2017-04-07T04:34:53.140Z,8.53
2017-04-07T04:35:33.585Z,8.55
2017-04-07T04:36:14.072Z,8.46
2017-04-07T04:36:54.499Z,8.46
2017-04-07T04:37:34.972Z,8.45
2017-04-07T04:38:15.431Z,8.41
2017-04-07T04:38:55.939Z,8.53
2017-04-07T04:39:36.379Z,8.46
2017-04-07T04:40:16.808Z,8.44
2017-04-07T04:40:57.292Z,8.48
2017-04-07T04:41:37.745Z,8.44
2017-04-07T04:42:18.261Z,8.53
2017-04-07T04:42:58.741Z,8.44
2017-04-07T04:43:39.218Z,8.41
2017-04-07T04:44:19.686Z,8.38
2017-04-07T04:45:00.111Z,8.45
2017-04-07T04:45:40.608Z,8.42
2017-04-07T04:46:21.065Z,8.44
2017-04-07T04:47:01.532Z,8.55
2017-04-07T04:47:42.015Z,8.49
2017-04-07T04:48:22.484Z,8.46
2017-04-07T04:49:02.936Z,8.53
2017-04-07T04:49:43.417Z,8.37
2017-04-07T04:50:23.922Z,8.51
2017-04-07T04:51:04.363Z,8.42
2017-04-07T04:51:44.816Z,8.44
2017-04-07T04:52:25.325Z,8.41
2017-04-07T04:53:05.808Z,8.38
2017-04-07T04:53:46.242Z,8.45
2017-04-07T04:54:26.701Z,8.48
2017-04-07T04:55:07.167Z,8.51
2017-04-07T04:55:47.668Z,8.51
2017-04-07T04:56:28.139Z,8.48
2017-04-07T04:57:08.597Z,8.46
2017-04-07T04:57:49.071Z,8.53
2017-04-07T04:58:29.526Z,8.51
2017-04-07T04:59:10.022Z,8.55
2017-04-07T04:59:50.564Z,8.56
2017-04-07T05:00:31.022Z,8.52
2017-04-07T05:01:11.470Z,8.53
2017-04-07T05:01:51.924Z,8.48
2017-04-07T05:02:32.391Z,8.51
2017-04-07T05:03:12.829Z,8.46
2017-04-07T05:03:53.289Z,8.56
2017-04-07T05:04:33.802Z,8.46
2017-04-07T05:05:14.231Z,8.55
2017-04-07T05:05:54.725Z,8.53
2017-04-07T05:06:35.205Z,8.53
2017-04-07T05:07:15.666Z,8.52
2017-04-07T05:07:56.128Z,8.55
2017-04-07T05:08:36.624Z,8.55
2017-04-07T05:09:17.061Z,8.49
2017-04-07T05:09:57.557Z,8.53
2017-04-07T05:10:38.049Z,8.56
2017-04-07T05:11:18.491Z,8.53
2017-04-07T05:11:58.967Z,8.52
2017-04-07T05:12:39.491Z,8.48
2017-04-07T05:13:19.901Z,8.6
2017-04-07T05:14:00.400Z,8.58
2017-04-07T05:14:40.863Z,8.63
2017-04-07T05:15:21.356Z,8.6
2017-04-07T05:16:01.838Z,8.67
2017-04-07T05:16:42.295Z,8.66
2017-04-07T05:17:22.777Z,8.64
2017-04-07T05:18:03.226Z,8.69
2017-04-07T05:18:43.680Z,8.74
2017-04-07T05:19:24.165Z,8.73
2017-04-07T05:20:04.638Z,8.7
2017-04-07T05:20:45.096Z,8.71
2017-04-07T05:21:25.657Z,8.71
2017-04-07T05:22:06.082Z,8.71
2017-04-07T05:22:46.525Z,8.78
2017-04-07T05:23:27.021Z,8.71
2017-04-07T05:24:07.510Z,8.78
2017-04-07T05:24:48.005Z,8.73
2017-04-07T05:25:28.476Z,8.78
2017-04-07T05:26:08.965Z,8.79
2017-04-07T05:26:49.450Z,8.82
2017-04-07T05:27:29.950Z,8.82
2017-04-07T05:28:10.425Z,8.76
2017-04-07T05:28:50.881Z,8.76
2017-04-07T05:29:31.327Z,8.88
2017-04-07T05:30:11.771Z,8.85
2017-04-07T05:30:52.257Z,8.78
2017-04-07T05:31:32.716Z,8.85
2017-04-07T05:32:13.299Z,8.76
2017-04-07T05:32:53.788Z,8.84
2017-04-07T05:33:34.262Z,8.73
2017-04-07T05:34:14.725Z,8.82
2017-04-07T05:34:55.211Z,8.87
2017-04-07T05:35:35.666Z,8.78
2017-04-07T05:36:16.126Z,8.79
2017-04-07T05:36:56.588Z,8.76
2017-04-07T05:37:37.049Z,8.76
2017-04-07T05:38:17.515Z,8.85
2017-04-07T05:38:58.005Z,8.79
2017-04-07T05:39:38.434Z,8.87
2017-04-07T05:40:18.946Z,8.81
2017-04-07T05:40:59.393Z,8.87
2017-04-07T05:41:39.892Z,8.85
2017-04-07T05:42:20.314Z,8.81
2017-04-07T05:43:00.773Z,8.78
2017-04-07T05:43:41.219Z,8.85
2017-04-07T05:44:21.704Z,8.91
2017-04-07T05:45:02.165Z,8.82
2017-04-07T05:45:42.630Z,8.81
2017-04-07T05:46:23.101Z,8.79
2017-04-07T05:47:03.571Z,8.85
2017-04-07T05:47:44.074Z,8.81
2017-04-07T05:48:24.514Z,8.85
2017-04-07T05:49:04.994Z,8.99
2017-04-07T05:49:45.439Z,8.87
2017-04-07T05:50:25.946Z,8.99
2017-04-07T05:51:06.422Z,8.88
2017-04-07T05:51:46.890Z,8.89
2017-04-07T05:52:27.345Z,8.87
2017-04-07T05:53:07.824Z,8.94
2017-04-07T05:53:48.297Z,8.88
2017-04-07T05:54:28.773Z,8.84
2017-04-07T05:55:09.241Z,8.85
2017-04-07T05:55:49.743Z,8.88
2017-04-07T05:56:30.221Z,8.87
2017-04-07T05:57:10.696Z,8.88
2017-04-07T05:57:51.196Z,8.91
2017-04-07T05:58:31.628Z,8.92
2017-04-07T05:59:12.109Z,8.92
2017-04-07T05:59:52.573Z,8.87
2017-04-07T06:00:33.015Z,8.92
2017-04-07T06:01:13.537Z,8.85
2017-04-07T06:01:53.983Z,8.87
2017-04-07T06:02:34.469Z,8.88
2017-04-07T06:03:14.960Z,8.92
2017-04-07T06:03:55.428Z,8.85
2017-04-07T06:04:35.865Z,8.89
2017-04-07T06:05:16.354Z,8.92
2017-04-07T06:05:56.834Z,8.91
2017-04-07T06:06:37.269Z,8.91
2017-04-07T06:07:17.775Z,8.95
2017-04-07T06:07:58.213Z,8.97
2017-04-07T06:08:38.658Z,8.94
2017-04-07T06:09:19.126Z,8.99
2017-04-07T06:09:59.616Z,9.04
2017-04-07T06:10:40.110Z,8.95
2017-04-07T06:11:20.582Z,9.03
2017-04-07T06:12:01.037Z,8.99
2017-04-07T06:12:41.554Z,9.02
2017-04-07T06:13:21.977Z,8.97
2017-04-07T06:14:02.476Z,9.03
2017-04-07T06:14:42.936Z,8.97
2017-04-07T06:15:23.380Z,9.03
2017-04-07T06:16:03.820Z,9.02
2017-04-07T06:16:44.315Z,9.03
2017-04-07T06:17:24.848Z,8.97
2017-04-07T06:18:05.288Z,9.08
2017-04-07T06:18:45.781Z,9
2017-04-07T06:19:26.227Z,8.97
2017-04-07T06:20:07.003Z,9
2017-04-07T06:20:47.376Z,9.06
2017-04-07T06:21:27.857Z,9.06
2017-04-07T06:22:08.327Z,9.02
2017-04-07T06:22:48.771Z,9.08
2017-04-07T06:23:29.276Z,9.13
2017-04-07T06:24:09.765Z,9.16
2017-04-07T06:24:50.209Z,9.16
2017-04-07T06:25:30.677Z,9.16
2017-04-07T06:26:11.144Z,9.18
2017-04-07T06:26:51.584Z,9.21
2017-04-07T06:27:32.050Z,9.23
2017-04-07T06:28:12.610Z,9.18
2017-04-07T06:28:53.160Z,9.14
2017-04-07T06:29:33.657Z,9.19
2017-04-07T06:30:14.186Z,9.04
2017-04-07T06:30:54.668Z,9.11
2017-04-07T06:31:35.139Z,9
2017-04-07T06:32:15.671Z,9.1
2017-04-07T06:32:56.134Z,9.03
2017-04-07T06:33:36.611Z,8.99
2017-04-07T06:34:17.030Z,9
2017-04-07T06:34:57.543Z,8.94
2017-04-07T06:35:38.007Z,8.99
2017-04-07T06:36:18.514Z,9.02
2017-04-07T06:36:58.989Z,8.99
2017-04-07T06:37:39.554Z,8.92
2017-04-07T06:38:20.036Z,8.89
2017-04-07T06:39:00.525Z,8.88
2017-04-07T06:39:41.025Z,8.87
2017-04-07T06:40:21.499Z,8.85
2017-04-07T06:41:01.965Z,8.87
2017-04-07T06:41:42.467Z,8.81
2017-04-07T06:42:22.953Z,8.81
2017-04-07T06:43:03.493Z,8.78
2017-04-07T06:43:43.970Z,8.82
2017-04-07T06:44:24.448Z,8.78
2017-04-07T06:45:06.903Z,8.73
2017-04-07T06:45:53.609Z,8.76
2017-04-07T06:46:40.000Z,8.82
2017-04-07T06:47:20.488Z,8.79
2017-04-07T06:48:00.973Z,8.76
2017-04-07T06:48:41.441Z,8.79
2017-04-07T06:49:21.947Z,8.78
2017-04-07T06:50:02.441Z,8.79
2017-04-07T06:50:42.925Z,8.85
2017-04-07T06:51:23.419Z,8.84
2017-04-07T06:52:03.938Z,8.97
2017-04-07T06:52:44.478Z,8.84
2017-04-07T06:53:25.018Z,8.85
2017-04-07T06:54:05.539Z,8.87
2017-04-07T06:54:46.040Z,8.99
2017-04-07T06:55:26.498Z,8.89
2017-04-07T06:56:07.065Z,9
2017-04-07T06:56:47.584Z,8.99
2017-04-07T06:57:28.123Z,8.97
2017-04-07T06:58:08.618Z,9.02
2017-04-07T06:58:49.075Z,9
2017-04-07T06:59:29.564Z,9.08
2017-04-07T07:00:10.042Z,9.13
2017-04-07T07:00:50.509Z,9.08
2017-04-07T07:01:31.063Z,9.1
2017-04-07T07:02:11.703Z,9.06
2017-04-07T07:02:52.455Z,9.1
2017-04-07T07:03:33.069Z,9.13
2017-04-07T07:04:13.686Z,9.06
2017-04-07T07:04:54.210Z,9.14
2017-04-07T07:05:34.646Z,9.02
2017-04-07T07:06:15.141Z,9.08
2017-04-07T07:06:55.667Z,9.08
2017-04-07T07:07:36.134Z,9.06
2017-04-07T07:08:16.637Z,9.13
2017-04-07T07:08:57.105Z,9.11
2017-04-07T07:09:37.580Z,9.02
2017-04-07T07:10:18.095Z,9.13
2017-04-07T07:10:58.590Z,9.14
2017-04-07T07:11:39.015Z,9.02
2017-04-07T07:12:19.522Z,9.03
2017-04-07T07:12:59.998Z,8.99
2017-04-07T07:13:45.858Z,9
2017-04-07T07:14:26.521Z,9
2017-04-07T07:15:06.986Z,8.97
2017-04-07T07:15:47.469Z,9
2017-04-07T07:16:27.931Z,8.94
2017-04-07T07:17:08.424Z,8.88
2017-04-07T07:17:48.883Z,8.89
2017-04-07T07:18:29.374Z,8.91
2017-04-07T07:19:10.064Z,8.89
2017-04-07T07:19:50.609Z,8.91
2017-04-07T07:20:31.516Z,8.89
2017-04-07T07:21:11.977Z,8.87
2017-04-07T07:21:52.471Z,8.91
2017-04-07T07:22:32.943Z,8.88
2017-04-07T07:23:13.473Z,8.87
2017-04-07T07:23:53.947Z,8.89
2017-04-07T07:24:34.469Z,8.88
2017-04-07T07:25:14.953Z,8.89
2017-04-07T07:25:55.436Z,8.87
2017-04-07T07:26:35.908Z,8.94
2017-04-07T07:27:16.396Z,8.92
2017-04-07T07:27:56.884Z,8.89
2017-04-07T07:28:37.348Z,8.85
2017-04-07T07:29:17.837Z,8.82
2017-04-07T07:29:58.338Z,8.87
2017-04-07T07:30:38.850Z,8.79
2017-04-07T07:31:19.348Z,8.71
2017-04-07T07:31:59.841Z,8.81
2017-04-07T07:32:40.338Z,8.81
2017-04-07T07:33:23.857Z,8.74
2017-04-07T07:34:06.866Z,8.78
2017-04-07T07:34:47.427Z,8.81
2017-04-07T07:35:27.937Z,8.84
2017-04-07T07:36:08.473Z,8.92
2017-04-07T07:36:48.923Z,8.95
2017-04-07T07:37:29.432Z,8.92
2017-04-07T07:38:09.960Z,8.97
2017-04-07T07:38:50.457Z,8.91
2017-04-07T07:39:30.941Z,8.94
2017-04-07T07:40:12.098Z,8.79
2017-04-07T07:40:52.368Z,8.85
2017-04-07T07:41:32.913Z,8.88
2017-04-07T07:42:13.348Z,8.92
2017-04-07T07:42:53.852Z,8.89
2017-04-07T07:43:34.335Z,8.87
2017-04-07T07:44:14.853Z,8.91
2017-04-07T07:44:55.347Z,8.92
2017-04-07T07:45:35.864Z,8.99
2017-04-07T07:46:16.335Z,9.03
2017-04-07T07:46:56.830Z,8.99
2017-04-07T07:47:37.304Z,9.03
2017-04-07T07:48:17.760Z,9.1
2017-04-07T07:48:58.273Z,9.02
2017-04-07T07:49:38.737Z,9.13
2017-04-07T07:50:19.242Z,9.16
2017-04-07T07:50:59.799Z,9.14
2017-04-07T07:51:40.251Z,9.14
2017-04-07T07:52:20.784Z,9.19
2017-04-07T07:53:01.298Z,9.19
2017-04-07T07:53:42.563Z,9.21
2017-04-07T07:54:23.071Z,9.23
2017-04-07T07:55:05.014Z,9.23
2017-04-07T07:55:45.498Z,9.19
2017-04-07T07:56:25.982Z,9.22
2017-04-07T07:57:06.459Z,9.21
2017-04-07T07:57:46.976Z,9.19
2017-04-07T07:58:27.454Z,9.21
2017-04-07T07:59:07.930Z,9.19
2017-04-07T07:59:48.411Z,9.26
2017-04-07T08:00:28.886Z,9.21
2017-04-07T08:01:09.385Z,9.16
2017-04-07T08:01:51.048Z,9.21
2017-04-07T08:02:31.522Z,9.14
2017-04-07T08:03:12.165Z,9.19
2017-04-07T08:03:52.668Z,9.22
2017-04-07T08:04:33.117Z,9.21
2017-04-07T08:05:13.686Z,9.21
2017-04-07T08:05:54.182Z,9.21
2017-04-07T08:06:34.647Z,9.22
2017-04-07T08:07:15.124Z,9.18
2017-04-07T08:07:55.760Z,9.19
2017-04-07T08:08:36.102Z,9.26
2017-04-07T08:09:16.626Z,9.21
2017-04-07T08:09:57.067Z,9.22
2017-04-07T08:10:37.563Z,9.22
2017-04-07T08:11:18.504Z,9.23
2017-04-07T08:11:59.016Z,9.26
2017-04-07T08:12:39.494Z,9.23
2017-04-07T08:13:20.023Z,9.22
2017-04-07T08:14:00.577Z,9.16
2017-04-07T08:14:41.164Z,9.29
2017-04-07T08:15:21.644Z,9.22
2017-04-07T08:16:02.155Z,9.29
2017-04-07T08:16:42.775Z,9.22
2017-04-07T08:17:23.139Z,9.29
2017-04-07T08:18:03.635Z,9.25
2017-04-07T08:18:44.202Z,9.32
2017-04-07T08:19:26.596Z,9.29
2017-04-07T08:20:08.983Z,9.26
2017-04-07T08:20:49.519Z,9.23
2017-04-07T08:21:29.973Z,9.18
2017-04-07T08:22:10.482Z,9.18
2017-04-07T08:22:50.959Z,9.18
2017-04-07T08:23:31.476Z,9.25
2017-04-07T08:25:32.089Z,9.28
2017-04-07T08:26:21.521Z,9.25
2017-04-07T08:28:22.183Z,9.22
2017-04-07T08:29:11.192Z,9.19
2017-04-07T08:30:06.846Z,9.26
2017-04-07T08:32:04.749Z,9.19
2017-04-07T08:32:51.466Z,9.19
2017-04-07T08:33:40.080Z,9.23
2017-04-07T08:34:28.229Z,9.26
2017-04-07T08:35:17.860Z,9.23
2017-04-07T08:38:50.106Z,9.22
2017-04-07T08:40:26.801Z,9.23
2017-04-07T08:42:27.654Z,9.22
2017-04-07T08:43:16.105Z,9.16
2017-04-07T08:44:05.084Z,9.28
2017-04-07T08:44:55.686Z,9.26
2017-04-07T08:45:48.223Z,9.26
2017-04-07T08:46:33.921Z,9.25
2017-04-07T08:47:22.646Z,9.25
2017-04-07T08:48:11.538Z,9.29
2017-04-07T08:49:00.069Z,9.31
2017-04-07T08:49:48.764Z,9.28
2017-04-07T08:50:38.252Z,9.25
2017-04-07T08:51:26.988Z,9.26
2017-04-07T08:52:15.954Z,9.28
2017-04-07T08:53:05.128Z,9.25
2017-04-07T08:55:05.092Z,9.32
2017-04-07T08:55:55.245Z,9.32
2017-04-07T08:56:44.816Z,9.28
2017-04-07T08:57:34.834Z,9.21
2017-04-07T08:59:38.766Z,9.31
2017-04-07T09:00:27.743Z,9.37
2017-04-07T09:01:08.384Z,9.37
2017-04-07T09:01:48.872Z,9.36
2017-04-07T09:02:30.718Z,9.36
2017-04-07T09:03:14.550Z,9.41
2017-04-07T09:04:01.031Z,9.39
2017-04-07T09:05:42.488Z,9.41
2017-04-07T09:06:32.458Z,9.39
2017-04-07T09:07:19.165Z,9.44
2017-04-07T09:08:01.469Z,9.54
2017-04-07T09:08:43.817Z,9.55
2017-04-07T09:09:25.701Z,9.59
2017-04-07T09:10:08.504Z,9.5
2017-04-07T09:10:49.873Z,9.48
2017-04-07T09:11:32.311Z,9.5
2017-04-07T09:12:14.059Z,9.54
2017-04-07T09:12:56.877Z,9.61
2017-04-07T09:13:37.403Z,9.68
2017-04-07T09:14:17.847Z,9.68
2017-04-07T09:15:03.618Z,9.59
2017-04-07T09:15:43.914Z,9.62
2017-04-07T09:16:24.355Z,9.68
2017-04-07T09:17:04.898Z,9.61
2017-04-07T09:17:47.570Z,9.69
2017-04-07T09:18:29.627Z,9.72
2017-04-07T09:19:10.551Z,9.61